sensor_id;sensor_type;location;lat;lon;timestamp;pressure;altitude;pressure_sealevel;temperature;humidity
80410;BME280;69746;45.596;10.154;2023-11-21T00:00:21;98939.41;;;16.99;55.40
80410;BME280;69746;45.596;10.154;2023-11-21T00:02:47;98942.47;;;16.98;55.38
80410;BME280;69746;45.596;10.154;2023-11-21T00:05:13;98930.34;;;16.99;55.47
80410;BME280;69746;45.596;10.154;2023-11-21T00:07:42;98933.09;;;16.99;55.39
80410;BME280;69746;45.596;10.154;2023-11-21T00:10:09;98935.84;;;16.99;55.57
80410;BME280;69746;45.596;10.154;2023-11-21T00:12:35;98930.34;;;16.99;55.25
80410;BME280;69746;45.596;10.154;2023-11-21T00:15:03;98936.66;;;16.99;55.54
80410;BME280;69746;45.596;10.154;2023-11-21T00:17:35;98935.84;;;16.99;55.61
80410;BME280;69746;45.596;10.154;2023-11-21T00:20:00;98936.66;;;16.99;55.57
80410;BME280;69746;45.596;10.154;2023-11-21T00:22:26;98936.66;;;16.99;55.53
80410;BME280;69746;45.596;10.154;2023-11-21T00:24:52;98933.91;;;16.99;55.55
80410;BME280;69746;45.596;10.154;2023-11-21T00:27:18;98938.59;;;16.99;55.57
80410;BME280;69746;45.596;10.154;2023-11-21T00:29:44;98930.63;;;16.97;55.62
80410;BME280;69746;45.596;10.154;2023-11-21T00:32:10;98931.16;;;16.99;55.41
80410;BME280;69746;45.596;10.154;2023-11-21T00:34:36;98941.34;;;16.99;55.31
80410;BME280;69746;45.596;10.154;2023-11-21T00:37:01;98951.56;;;16.98;55.31
80410;BME280;69746;45.596;10.154;2023-11-21T00:39:28;98949.63;;;16.99;55.62
80410;BME280;69746;45.596;10.154;2023-11-21T00:41:54;98951.25;;;17.00;55.43
80410;BME280;69746;45.596;10.154;2023-11-21T00:44:20;98935.84;;;16.99;55.63
80410;BME280;69746;45.596;10.154;2023-11-21T00:46:46;98931.16;;;16.99;55.64
80410;BME280;69746;45.596;10.154;2023-11-21T00:49:12;98929.22;;;17.00;55.26
80410;BME280;69746;45.596;10.154;2023-11-21T00:51:38;98922.88;;;16.99;55.55
80410;BME280;69746;45.596;10.154;2023-11-21T00:54:05;98922.88;;;16.99;55.39
80410;BME280;69746;45.596;10.154;2023-11-21T00:56:32;98931.97;;;17.00;55.57
80410;BME280;69746;45.596;10.154;2023-11-21T00:58:59;98931.16;;;16.99;55.53
80410;BME280;69746;45.596;10.154;2023-11-21T01:01:25;98922.06;;;16.99;55.36
80410;BME280;69746;45.596;10.154;2023-11-21T01:03:51;98922.88;;;16.99;55.49
80410;BME280;69746;45.596;10.154;2023-11-21T01:06:17;98903.59;;;16.99;55.34
80410;BME280;69746;45.596;10.154;2023-11-21T01:08:44;98900.03;;;16.99;55.49
80410;BME280;69746;45.596;10.154;2023-11-21T01:11:10;98902.78;;;16.99;55.37
80410;BME280;69746;45.596;10.154;2023-11-21T01:13:38;98903.59;;;16.99;55.34
80410;BME280;69746;45.596;10.154;2023-11-21T01:16:05;98898.09;;;16.99;55.54
80410;BME280;69746;45.596;10.154;2023-11-21T01:18:32;98911.06;;;16.99;55.57
80410;BME280;69746;45.596;10.154;2023-11-21T01:20:58;98909.13;;;16.99;55.62
80410;BME280;69746;45.596;10.154;2023-11-21T01:23:26;98909.13;;;16.99;55.50
80410;BME280;69746;45.596;10.154;2023-11-21T01:25:52;98914.63;;;16.99;55.38
80410;BME280;69746;45.596;10.154;2023-11-21T01:28:19;98916.56;;;16.99;55.67
80410;BME280;69746;45.596;10.154;2023-11-21T01:30:46;98907.47;;;16.98;55.58
80410;BME280;69746;45.596;10.154;2023-11-21T01:33:11;98909.41;;;16.98;55.59
80410;BME280;69746;45.596;10.154;2023-11-21T01:35:37;98900.03;;;16.99;55.51
80410;BME280;69746;45.596;10.154;2023-11-21T01:38:03;98897.28;;;16.99;55.43
80410;BME280;69746;45.596;10.154;2023-11-21T01:40:32;98905.53;;;16.99;55.59
80410;BME280;69746;45.596;10.154;2023-11-21T01:42:58;98902.78;;;16.99;55.44
80410;BME280;69746;45.596;10.154;2023-11-21T01:45:23;98902.78;;;16.99;55.48
80410;BME280;69746;45.596;10.154;2023-11-21T01:47:51;98903.59;;;16.99;55.29
80410;BME280;69746;45.596;10.154;2023-11-21T01:50:18;98895.34;;;16.99;55.27
80410;BME280;69746;45.596;10.154;2023-11-21T01:52:45;98885.44;;;16.98;55.62
80410;BME280;69746;45.596;10.154;2023-11-21T01:55:14;98878.00;;;16.99;55.43
80410;BME280;69746;45.596;10.154;2023-11-21T01:57:43;98875.25;;;16.99;55.52
80410;BME280;69746;45.596;10.154;2023-11-21T02:00:10;98868.09;;;16.98;55.55
80410;BME280;69746;45.596;10.154;2023-11-21T02:02:47;98870.53;;;16.99;55.29
80410;BME280;69746;45.596;10.154;2023-11-21T02:05:15;98872.47;;;16.99;55.41
80410;BME280;69746;45.596;10.154;2023-11-21T02:07:44;98865.84;;;17.00;55.69
80410;BME280;69746;45.596;10.154;2023-11-21T02:10:11;98866.97;;;16.99;55.41
80410;BME280;69746;45.596;10.154;2023-11-21T02:12:41;98863.41;;;16.98;55.31
80410;BME280;69746;45.596;10.154;2023-11-21T02:15:11;98872.47;;;16.99;55.33
80410;BME280;69746;45.596;10.154;2023-11-21T02:17:42;98869.72;;;16.99;55.20
80410;BME280;69746;45.596;10.154;2023-11-21T02:20:13;98861.16;;;17.00;55.51
80410;BME280;69746;45.596;10.154;2023-11-21T02:22:51;98855.13;;;16.98;55.49
80410;BME280;69746;45.596;10.154;2023-11-21T02:25:23;98854.31;;;16.98;55.67
80410;BME280;69746;45.596;10.154;2023-11-21T02:27:49;98863.72;;;16.97;55.55
80410;BME280;69746;45.596;10.154;2023-11-21T02:30:17;98852.69;;;16.97;55.32
80410;BME280;69746;45.596;10.154;2023-11-21T02:32:44;98848.81;;;16.98;55.60
80410;BME280;69746;45.596;10.154;2023-11-21T02:35:10;98848.81;;;16.98;55.35
80410;BME280;69746;45.596;10.154;2023-11-21T02:37:37;98844.13;;;16.98;55.66
80410;BME280;69746;45.596;10.154;2023-11-21T02:40:04;98842.50;;;16.97;55.58
80410;BME280;69746;45.596;10.154;2023-11-21T02:42:35;98840.53;;;16.98;55.42
80410;BME280;69746;45.596;10.154;2023-11-21T02:45:01;98837.78;;;16.98;55.59
80410;BME280;69746;45.596;10.154;2023-11-21T02:47:27;98825.97;;;16.97;55.45
80410;BME280;69746;45.596;10.154;2023-11-21T02:49:52;98822.09;;;16.98;55.40
80410;BME280;69746;45.596;10.154;2023-11-21T02:52:18;98815.75;;;16.98;55.60
80410;BME280;69746;45.596;10.154;2023-11-21T02:54:44;98814.63;;;16.99;55.52
80410;BME280;69746;45.596;10.154;2023-11-21T02:57:10;98809.13;;;16.99;55.59
80410;BME280;69746;45.596;10.154;2023-11-21T02:59:36;98805.56;;;16.98;55.41
80410;BME280;69746;45.596;10.154;2023-11-21T03:02:02;98803.09;;;16.97;55.58
80410;BME280;69746;45.596;10.154;2023-11-21T03:04:28;98809.13;;;16.99;55.53
80410;BME280;69746;45.596;10.154;2023-11-21T03:06:54;98800.84;;;16.99;55.53
80410;BME280;69746;45.596;10.154;2023-11-21T03:09:20;98805.56;;;16.98;55.54
80410;BME280;69746;45.596;10.154;2023-11-21T03:11:46;98807.19;;;16.99;55.55
80410;BME280;69746;45.596;10.154;2023-11-21T03:14:11;98806.38;;;16.99;55.57
80410;BME280;69746;45.596;10.154;2023-11-21T03:16:37;98803.63;;;16.99;55.38
80410;BME280;69746;45.596;10.154;2023-11-21T03:19:04;98800.84;;;16.99;55.63
80410;BME280;69746;45.596;10.154;2023-11-21T03:21:30;98800.03;;;16.98;55.54
80410;BME280;69746;45.596;10.154;2023-11-21T03:23:56;98793.41;;;16.99;55.71
80410;BME280;69746;45.596;10.154;2023-11-21T03:26:22;98792.59;;;16.99;55.50
80410;BME280;69746;45.596;10.154;2023-11-21T03:28:48;98792.59;;;16.99;55.62
80410;BME280;69746;45.596;10.154;2023-11-21T03:31:15;98787.09;;;16.99;55.46
80410;BME280;69746;45.596;10.154;2023-11-21T03:33:43;98802.50;;;17.00;55.64
80410;BME280;69746;45.596;10.154;2023-11-21T03:36:09;98796.97;;;17.00;55.60
80410;BME280;69746;45.596;10.154;2023-11-21T03:38:35;98795.34;;;16.99;55.71
80410;BME280;69746;45.596;10.154;2023-11-21T03:41:04;98792.59;;;16.99;55.54
80410;BME280;69746;45.596;10.154;2023-11-21T03:43:30;98791.78;;;16.98;55.64
80410;BME280;69746;45.596;10.154;2023-11-21T03:45:56;98796.97;;;17.00;55.51
80410;BME280;69746;45.596;10.154;2023-11-21T03:48:22;98810.75;;;17.00;55.59
80410;BME280;69746;45.596;10.154;2023-11-21T03:50:51;98813.50;;;17.00;55.33
80410;BME280;69746;45.596;10.154;2023-11-21T03:53:17;98812.69;;;16.99;55.28
80410;BME280;69746;45.596;10.154;2023-11-21T03:55:42;98816.25;;;17.00;55.60
80410;BME280;69746;45.596;10.154;2023-11-21T03:58:08;98804.44;;;16.99;55.34
80410;BME280;69746;45.596;10.154;2023-11-21T04:00:37;98812.69;;;16.99;55.21
80410;BME280;69746;45.596;10.154;2023-11-21T04:03:02;98812.69;;;16.99;55.34
80410;BME280;69746;45.596;10.154;2023-11-21T04:05:28;98815.44;;;16.99;55.53
80410;BME280;69746;45.596;10.154;2023-11-21T04:07:54;98814.63;;;16.99;55.40
80410;BME280;69746;45.596;10.154;2023-11-21T04:10:20;98812.69;;;16.99;55.46
80410;BME280;69746;45.596;10.154;2023-11-21T04:12:47;98799.75;;;17.00;55.68
80410;BME280;69746;45.596;10.154;2023-11-21T04:15:14;98805.25;;;17.00;55.54
80410;BME280;69746;45.596;10.154;2023-11-21T04:17:40;98801.69;;;16.99;55.40
80410;BME280;69746;45.596;10.154;2023-11-21T04:20:07;98805.25;;;17.00;55.46
80410;BME280;69746;45.596;10.154;2023-11-21T04:22:43;98810.75;;;17.00;55.53
80410;BME280;69746;45.596;10.154;2023-11-21T04:25:14;98804.44;;;16.99;55.44
80410;BME280;69746;45.596;10.154;2023-11-21T04:27:41;98808.31;;;16.98;55.65
80410;BME280;69746;45.596;10.154;2023-11-21T04:30:12;98802.50;;;17.00;55.52
80410;BME280;69746;45.596;10.154;2023-11-21T04:32:38;98810.75;;;17.00;55.19
80410;BME280;69746;45.596;10.154;2023-11-21T04:35:05;98804.44;;;16.99;55.61
80410;BME280;69746;45.596;10.154;2023-11-21T04:37:31;98798.09;;;16.99;55.40
80410;BME280;69746;45.596;10.154;2023-11-21T04:40:00;98794.22;;;17.00;55.35
80410;BME280;69746;45.596;10.154;2023-11-21T04:42:26;98792.59;;;16.99;55.54
80410;BME280;69746;45.596;10.154;2023-11-21T04:44:52;98793.41;;;16.99;55.51
80410;BME280;69746;45.596;10.154;2023-11-21T04:47:18;98791.78;;;16.98;55.51
80410;BME280;69746;45.596;10.154;2023-11-21T04:49:46;98789.84;;;16.99;55.32
80410;BME280;69746;45.596;10.154;2023-11-21T04:52:13;98789.84;;;16.99;55.49
80410;BME280;69746;45.596;10.154;2023-11-21T04:54:39;98796.16;;;16.99;55.31
80410;BME280;69746;45.596;10.154;2023-11-21T04:57:05;98793.41;;;16.99;55.61
80410;BME280;69746;45.596;10.154;2023-11-21T04:59:35;98799.75;;;17.00;55.43
80410;BME280;69746;45.596;10.154;2023-11-21T05:02:01;98798.09;;;16.99;55.49
80410;BME280;69746;45.596;10.154;2023-11-21T05:04:28;98801.69;;;16.99;55.44
80410;BME280;69746;45.596;10.154;2023-11-21T05:06:55;98798.91;;;16.99;55.19
80410;BME280;69746;45.596;10.154;2023-11-21T05:09:23;98787.91;;;16.99;55.50
80410;BME280;69746;45.596;10.154;2023-11-21T05:11:49;98788.72;;;17.00;55.29
80410;BME280;69746;45.596;10.154;2023-11-21T05:14:15;98789.53;;;17.00;55.48
80410;BME280;69746;45.596;10.154;2023-11-21T05:16:41;98795.03;;;17.00;55.29
80410;BME280;69746;45.596;10.154;2023-11-21T05:19:07;98784.34;;;16.99;55.38
80410;BME280;69746;45.596;10.154;2023-11-21T05:21:34;98785.97;;;17.00;55.40
80410;BME280;69746;45.596;10.154;2023-11-21T05:24:01;98791.47;;;17.00;55.30
80410;BME280;69746;45.596;10.154;2023-11-21T05:26:27;98796.97;;;17.00;55.18
80410;BME280;69746;45.596;10.154;2023-11-21T05:28:53;98787.91;;;16.99;55.59
80410;BME280;69746;45.596;10.154;2023-11-21T05:31:22;98788.72;;;17.00;55.46
80410;BME280;69746;45.596;10.154;2023-11-21T05:33:48;98783.22;;;17.00;55.43
80410;BME280;69746;45.596;10.154;2023-11-21T05:36:14;98782.38;;;16.99;55.28
80410;BME280;69746;45.596;10.154;2023-11-21T05:38:40;98787.91;;;16.99;55.53
80410;BME280;69746;45.596;10.154;2023-11-21T05:41:07;98786.78;;;17.00;55.29
80410;BME280;69746;45.596;10.154;2023-11-21T05:43:35;98790.66;;;16.99;55.37
80410;BME280;69746;45.596;10.154;2023-11-21T05:46:01;98791.47;;;17.00;55.46
80410;BME280;69746;45.596;10.154;2023-11-21T05:48:27;98791.47;;;17.00;55.47
80410;BME280;69746;45.596;10.154;2023-11-21T05:50:53;98788.72;;;17.00;55.29
80410;BME280;69746;45.596;10.154;2023-11-21T05:53:19;98796.16;;;16.99;55.47
80410;BME280;69746;45.596;10.154;2023-11-21T05:55:45;98789.53;;;17.00;55.33
80410;BME280;69746;45.596;10.154;2023-11-21T05:58:10;98787.91;;;16.99;55.53
80410;BME280;69746;45.596;10.154;2023-11-21T06:00:40;98786.78;;;17.00;55.56
80410;BME280;69746;45.596;10.154;2023-11-21T06:03:06;98787.91;;;16.99;55.32
80410;BME280;69746;45.596;10.154;2023-11-21T06:05:32;98791.47;;;17.00;55.67
80410;BME280;69746;45.596;10.154;2023-11-21T06:08:01;98784.03;;;17.00;55.53
80410;BME280;69746;45.596;10.154;2023-11-21T06:10:27;98790.34;;;17.01;55.50
80410;BME280;69746;45.596;10.154;2023-11-21T06:12:54;98789.84;;;16.99;55.70
80410;BME280;69746;45.596;10.154;2023-11-21T06:15:20;98795.03;;;17.00;55.36
80410;BME280;69746;45.596;10.154;2023-11-21T06:17:48;98788.72;;;17.00;55.29
80410;BME280;69746;45.596;10.154;2023-11-21T06:20:21;98791.47;;;17.00;55.46
80410;BME280;69746;45.596;10.154;2023-11-21T06:22:49;98792.59;;;16.99;55.19
80410;BME280;69746;45.596;10.154;2023-11-21T06:25:15;98781.88;;;16.97;55.58
80410;BME280;69746;45.596;10.154;2023-11-21T06:27:44;98782.69;;;16.98;55.50
80410;BME280;69746;45.596;10.154;2023-11-21T06:30:11;98787.09;;;16.99;55.42
80410;BME280;69746;45.596;10.154;2023-11-21T06:32:38;98783.22;;;17.00;55.65
80410;BME280;69746;45.596;10.154;2023-11-21T06:35:05;98784.03;;;17.00;55.39
80410;BME280;69746;45.596;10.154;2023-11-21T06:37:32;98781.28;;;17.00;55.48
80410;BME280;69746;45.596;10.154;2023-11-21T06:40:00;98786.78;;;17.00;55.41
80410;BME280;69746;45.596;10.154;2023-11-21T06:42:27;98786.78;;;17.00;55.45
80410;BME280;69746;45.596;10.154;2023-11-21T06:44:54;98784.84;;;17.01;55.65
80410;BME280;69746;45.596;10.154;2023-11-21T06:47:23;98774.94;;;17.00;55.64
80410;BME280;69746;45.596;10.154;2023-11-21T06:49:50;98772.19;;;17.00;55.33
80410;BME280;69746;45.596;10.154;2023-11-21T06:52:16;98781.56;;;16.99;55.62
80410;BME280;69746;45.596;10.154;2023-11-21T06:54:41;98776.38;;;16.97;55.57
80410;BME280;69746;45.596;10.154;2023-11-21T06:57:07;98778.31;;;16.97;55.57
80410;BME280;69746;45.596;10.154;2023-11-21T06:59:33;98770.88;;;16.97;55.46
80410;BME280;69746;45.596;10.154;2023-11-21T07:02:01;98777.19;;;16.98;55.50
80410;BME280;69746;45.596;10.154;2023-11-21T07:04:27;98776.38;;;16.97;55.63
80410;BME280;69746;45.596;10.154;2023-11-21T07:06:54;98768.09;;;16.97;55.49
80410;BME280;69746;45.596;10.154;2023-11-21T07:09:20;98762.59;;;16.97;55.62
80410;BME280;69746;45.596;10.154;2023-11-21T07:11:49;98759.53;;;16.99;55.71
80410;BME280;69746;45.596;10.154;2023-11-21T07:14:15;98762.28;;;16.99;55.40
80410;BME280;69746;45.596;10.154;2023-11-21T07:16:43;98754.84;;;16.99;55.61
80410;BME280;69746;45.596;10.154;2023-11-21T07:19:09;98759.53;;;16.99;55.41
80410;BME280;69746;45.596;10.154;2023-11-21T07:21:35;98752.09;;;16.99;55.37
80410;BME280;69746;45.596;10.154;2023-11-21T07:24:04;98751.28;;;16.99;55.42
80410;BME280;69746;45.596;10.154;2023-11-21T07:26:33;98754.84;;;16.99;55.71
80410;BME280;69746;45.596;10.154;2023-11-21T07:28:59;98760.34;;;16.99;55.58
80410;BME280;69746;45.596;10.154;2023-11-21T07:31:26;98757.59;;;16.99;55.61
80410;BME280;69746;45.596;10.154;2023-11-21T07:33:51;98761.16;;;17.00;55.46
80410;BME280;69746;45.596;10.154;2023-11-21T07:36:19;98758.41;;;17.00;55.53
80410;BME280;69746;45.596;10.154;2023-11-21T07:38:47;98761.16;;;17.00;55.40
80410;BME280;69746;45.596;10.154;2023-11-21T07:41:13;98766.69;;;17.00;55.54
80410;BME280;69746;45.596;10.154;2023-11-21T07:43:43;98773.81;;;17.01;55.43
80410;BME280;69746;45.596;10.154;2023-11-21T07:46:10;98777.69;;;17.00;55.54
80410;BME280;69746;45.596;10.154;2023-11-21T07:48:38;98777.69;;;17.00;55.36
80410;BME280;69746;45.596;10.154;2023-11-21T07:51:05;98774.94;;;17.00;55.63
80410;BME280;69746;45.596;10.154;2023-11-21T07:53:32;98779.34;;;17.01;55.23
80410;BME280;69746;45.596;10.154;2023-11-21T07:56:06;98771.88;;;17.01;55.57
80410;BME280;69746;45.596;10.154;2023-11-21T07:58:34;98763.94;;;17.00;55.49
80410;BME280;69746;45.596;10.154;2023-11-21T08:01:00;98764.75;;;17.00;55.36
80410;BME280;69746;45.596;10.154;2023-11-21T08:03:26;98769.44;;;17.00;55.35
80410;BME280;69746;45.596;10.154;2023-11-21T08:05:52;98757.59;;;16.99;55.32
80410;BME280;69746;45.596;10.154;2023-11-21T08:08:18;98758.41;;;17.00;55.46
80410;BME280;69746;45.596;10.154;2023-11-21T08:10:45;98758.09;;;17.01;55.63
80410;BME280;69746;45.596;10.154;2023-11-21T08:13:16;98771.06;;;17.01;55.46
80410;BME280;69746;45.596;10.154;2023-11-21T08:15:42;98766.69;;;17.00;55.36
80410;BME280;69746;45.596;10.154;2023-11-21T08:18:11;98766.69;;;17.00;55.71
80410;BME280;69746;45.596;10.154;2023-11-21T08:20:38;98768.63;;;16.99;55.55
80410;BME280;69746;45.596;10.154;2023-11-21T08:23:05;98761.16;;;17.00;55.59
80410;BME280;69746;45.596;10.154;2023-11-21T08:25:32;98773.00;;;17.00;55.59
80410;BME280;69746;45.596;10.154;2023-11-21T08:27:59;98784.34;;;16.99;55.33
80410;BME280;69746;45.596;10.154;2023-11-21T08:30:25;98784.03;;;17.00;55.26
80410;BME280;69746;45.596;10.154;2023-11-21T08:32:50;98783.22;;;17.00;55.32
80410;BME280;69746;45.596;10.154;2023-11-21T08:35:19;98786.78;;;17.00;55.30
80410;BME280;69746;45.596;10.154;2023-11-21T08:37:45;98787.91;;;16.99;55.36
80410;BME280;69746;45.596;10.154;2023-11-21T08:40:11;98788.72;;;17.00;55.49
80410;BME280;69746;45.596;10.154;2023-11-21T08:42:42;98776.88;;;16.99;55.58
80410;BME280;69746;45.596;10.154;2023-11-21T08:45:09;98780.44;;;17.00;55.64
80410;BME280;69746;45.596;10.154;2023-11-21T08:47:35;98771.38;;;16.99;55.58
80410;BME280;69746;45.596;10.154;2023-11-21T08:50:02;98774.13;;;16.99;55.22
80410;BME280;69746;45.596;10.154;2023-11-21T08:52:28;98765.88;;;16.99;55.49
80410;BME280;69746;45.596;10.154;2023-11-21T08:54:54;98764.75;;;17.00;55.39
80410;BME280;69746;45.596;10.154;2023-11-21T08:57:22;98760.34;;;16.99;55.30
80410;BME280;69746;45.596;10.154;2023-11-21T08:59:48;98762.00;;;17.00;55.36
80410;BME280;69746;45.596;10.154;2023-11-21T09:02:14;98749.34;;;16.99;55.37
80410;BME280;69746;45.596;10.154;2023-11-21T09:04:43;98745.47;;;17.00;55.52
80410;BME280;69746;45.596;10.154;2023-11-21T09:07:08;98746.56;;;16.99;55.66
80410;BME280;69746;45.596;10.154;2023-11-21T09:09:38;98752.91;;;17.00;55.51
80410;BME280;69746;45.596;10.154;2023-11-21T09:12:03;98749.34;;;16.99;55.37
80410;BME280;69746;45.596;10.154;2023-11-21T09:14:30;98746.56;;;16.99;55.19
80410;BME280;69746;45.596;10.154;2023-11-21T09:16:56;98740.25;;;16.99;55.26
80410;BME280;69746;45.596;10.154;2023-11-21T09:19:22;98738.31;;;16.99;55.18
80410;BME280;69746;45.596;10.154;2023-11-21T09:21:47;98737.50;;;16.99;55.14
80410;BME280;69746;45.596;10.154;2023-11-21T09:24:16;98732.28;;;16.97;55.36
80410;BME280;69746;45.596;10.154;2023-11-21T09:26:42;98740.25;;;16.99;55.40
80410;BME280;69746;45.596;10.154;2023-11-21T09:29:09;98746.88;;;16.98;55.59
80410;BME280;69746;45.596;10.154;2023-11-21T09:31:37;98739.44;;;16.98;55.51
80410;BME280;69746;45.596;10.154;2023-11-21T09:34:10;98738.31;;;16.99;55.37
80410;BME280;69746;45.596;10.154;2023-11-21T09:36:37;98732.00;;;16.99;55.44
80410;BME280;69746;45.596;10.154;2023-11-21T09:39:04;98738.31;;;16.99;55.51
80410;BME280;69746;45.596;10.154;2023-11-21T09:41:49;98731.47;;;16.97;55.42
80410;BME280;69746;45.596;10.154;2023-11-21T09:44:26;98736.69;;;16.98;55.33
80410;BME280;69746;45.596;10.154;2023-11-21T09:46:59;98740.25;;;16.99;55.72
80410;BME280;69746;45.596;10.154;2023-11-21T09:49:26;98725.66;;;16.98;55.30
80410;BME280;69746;45.596;10.154;2023-11-21T09:51:55;98724.53;;;16.99;55.51
80410;BME280;69746;45.596;10.154;2023-11-21T09:54:24;98714.66;;;16.98;55.40
80410;BME280;69746;45.596;10.154;2023-11-21T09:56:50;98716.28;;;16.99;55.18
80410;BME280;69746;45.596;10.154;2023-11-21T09:59:16;98728.41;;;16.98;55.49
80410;BME280;69746;45.596;10.154;2023-11-21T10:01:45;98729.22;;;16.99;55.58
80410;BME280;69746;45.596;10.154;2023-11-21T10:04:12;98733.13;;;16.98;55.46
80410;BME280;69746;45.596;10.154;2023-11-21T10:06:40;98731.19;;;16.98;55.52
80410;BME280;69746;45.596;10.154;2023-11-21T10:09:13;98722.91;;;16.98;55.47
80410;BME280;69746;45.596;10.154;2023-11-21T10:11:41;98719.03;;;16.99;55.59
80410;BME280;69746;45.596;10.154;2023-11-21T10:14:11;98708.00;;;16.99;55.21
80410;BME280;69746;45.596;10.154;2023-11-21T10:16:41;98711.88;;;16.98;55.46
80410;BME280;69746;45.596;10.154;2023-11-21T10:19:12;98709.94;;;16.99;55.57
80410;BME280;69746;45.596;10.154;2023-11-21T10:21:41;98704.44;;;16.99;55.59
80410;BME280;69746;45.596;10.154;2023-11-21T10:24:07;98694.53;;;16.98;55.27
80410;BME280;69746;45.596;10.154;2023-11-21T10:26:33;98691.78;;;16.98;55.52
80410;BME280;69746;45.596;10.154;2023-11-21T10:29:01;98694.25;;;16.99;55.30
80410;BME280;69746;45.596;10.154;2023-11-21T10:31:31;98692.59;;;16.98;55.26
80410;BME280;69746;45.596;10.154;2023-11-21T10:34:15;98679.66;;;16.99;55.54
80410;BME280;69746;45.596;10.154;2023-11-21T10:36:41;98664.25;;;16.98;55.38
80410;BME280;69746;45.596;10.154;2023-11-21T10:39:07;98674.13;;;16.99;55.21
80410;BME280;69746;45.596;10.154;2023-11-21T10:41:33;98666.19;;;16.97;55.66
80410;BME280;69746;45.596;10.154;2023-11-21T10:44:03;98657.91;;;16.97;55.49
80410;BME280;69746;45.596;10.154;2023-11-21T10:46:32;98662.31;;;16.98;55.67
80410;BME280;69746;45.596;10.154;2023-11-21T10:48:58;98657.91;;;16.97;55.44
80410;BME280;69746;45.596;10.154;2023-11-21T10:51:25;98656.78;;;16.98;55.28
80410;BME280;69746;45.596;10.154;2023-11-21T10:53:54;98661.50;;;16.98;55.38
80410;BME280;69746;45.596;10.154;2023-11-21T10:56:23;98667.00;;;16.98;55.67
80410;BME280;69746;45.596;10.154;2023-11-21T10:58:49;98670.56;;;16.98;55.46
80410;BME280;69746;45.596;10.154;2023-11-21T11:01:18;98676.91;;;16.99;55.30
80410;BME280;69746;45.596;10.154;2023-11-21T11:03:50;98676.91;;;16.99;55.33
80410;BME280;69746;45.596;10.154;2023-11-21T11:06:21;98682.41;;;16.99;55.30
80410;BME280;69746;45.596;10.154;2023-11-21T11:08:48;98669.75;;;16.98;55.60
80410;BME280;69746;45.596;10.154;2023-11-21T11:11:15;98671.69;;;16.97;55.34
80410;BME280;69746;45.596;10.154;2023-11-21T11:13:43;98674.13;;;16.99;55.52
80410;BME280;69746;45.596;10.154;2023-11-21T11:16:13;98676.06;;;16.98;55.51
80410;BME280;69746;45.596;10.154;2023-11-21T11:18:43;98681.59;;;16.98;55.50
80410;BME280;69746;45.596;10.154;2023-11-21T11:24:13;98689.84;;;16.98;55.36
80410;BME280;69746;45.596;10.154;2023-11-21T11:26:51;98681.59;;;16.98;55.57
80410;BME280;69746;45.596;10.154;2023-11-21T11:29:39;98675.25;;;16.98;55.39
80410;BME280;69746;45.596;10.154;2023-11-21T11:32:19;98668.94;;;16.97;55.50
80410;BME280;69746;45.596;10.154;2023-11-21T11:37:40;98670.88;;;16.97;55.24
80410;BME280;69746;45.596;10.154;2023-11-21T11:40:06;98677.19;;;16.97;55.55
80410;BME280;69746;45.596;10.154;2023-11-21T11:42:33;98676.38;;;16.97;55.58
80410;BME280;69746;45.596;10.154;2023-11-21T11:45:01;98680.78;;;16.98;55.25
80410;BME280;69746;45.596;10.154;2023-11-21T11:47:31;98668.13;;;16.97;55.19
80410;BME280;69746;45.596;10.154;2023-11-21T11:50:09;98676.06;;;16.98;55.29
80410;BME280;69746;45.596;10.154;2023-11-21T11:52:46;98674.44;;;16.97;55.51
80410;BME280;69746;45.596;10.154;2023-11-21T11:55:15;98677.19;;;16.97;55.60
80410;BME280;69746;45.596;10.154;2023-11-21T11:57:45;98676.38;;;16.97;55.39
80410;BME280;69746;45.596;10.154;2023-11-21T12:00:22;98668.13;;;16.97;55.36
80410;BME280;69746;45.596;10.154;2023-11-21T12:03:03;98668.13;;;16.97;55.58
80410;BME280;69746;45.596;10.154;2023-11-21T12:05:30;98671.69;;;16.97;55.57
80410;BME280;69746;45.596;10.154;2023-11-21T12:08:01;98670.88;;;16.97;55.53
80410;BME280;69746;45.596;10.154;2023-11-21T12:10:32;98670.88;;;16.97;55.55
80410;BME280;69746;45.596;10.154;2023-11-21T12:13:06;98670.06;;;16.96;55.19
80410;BME280;69746;45.596;10.154;2023-11-21T12:15:37;98668.94;;;16.97;54.94
80410;BME280;69746;45.596;10.154;2023-11-21T12:18:04;98667.31;;;16.96;55.20
80410;BME280;69746;45.596;10.154;2023-11-21T12:20:33;98672.50;;;16.98;55.53
80410;BME280;69746;45.596;10.154;2023-11-21T12:23:05;98676.06;;;16.98;55.65
80410;BME280;69746;45.596;10.154;2023-11-21T12:25:32;98679.97;;;16.97;55.56
80410;BME280;69746;45.596;10.154;2023-11-21T12:28:02;98679.97;;;16.97;55.36
80410;BME280;69746;45.596;10.154;2023-11-21T12:30:30;98689.03;;;16.98;55.67
80410;BME280;69746;45.596;10.154;2023-11-21T12:32:59;98687.41;;;16.97;55.47
80410;BME280;69746;45.596;10.154;2023-11-21T12:35:30;98678.03;;;16.98;55.56
80410;BME280;69746;45.596;10.154;2023-11-21T12:37:57;98678.84;;;16.98;55.32
80410;BME280;69746;45.596;10.154;2023-11-21T12:40:24;98672.50;;;16.98;55.52
80410;BME280;69746;45.596;10.154;2023-11-21T12:42:58;98682.41;;;16.99;55.44
80410;BME280;69746;45.596;10.154;2023-11-21T12:45:26;98678.03;;;16.98;55.48
80410;BME280;69746;45.596;10.154;2023-11-21T12:48:00;98672.50;;;16.98;55.30
80410;BME280;69746;45.596;10.154;2023-11-21T12:50:31;98666.19;;;16.97;55.29
80410;BME280;69746;45.596;10.154;2023-11-21T12:53:02;98666.19;;;16.97;55.30
80410;BME280;69746;45.596;10.154;2023-11-21T12:55:33;98663.44;;;16.97;55.63
80410;BME280;69746;45.596;10.154;2023-11-21T12:58:04;98661.81;;;16.96;55.30